Time;durP1;ratioP1;P1;durP2;ratioP2;P2;SDS_P1;SDS_P2;PMS_P1;PMS_P2;Temp;Humidity;BMP_temperature;BMP_pressure;BME280_temperature;BME280_humidity;BME280_pressure;Samples;Min_cycle;Max_cycle;Signal;HPM_P1;HPM_P2
2022/05/26 00:01:49;;;;;;;;;;;13.30;99.90;;;;;;5111281;27;19920;-69
2022/05/26 00:04:15;;;;;;;;;;;13.20;99.90;;;;;;5079970;28;19932;-70
2022/05/26 00:06:41;;;;;;;;;;;13.20;99.90;;;;;;5075990;28;19920;-73
2022/05/26 00:09:06;;;;;;;;;;;13.40;99.90;;;;;;5077846;28;19928;-73
2022/05/26 00:11:34;;;;;;;;;;;13.20;99.90;;;;;;5081546;28;19943;-71
2022/05/26 00:14:07;;;;;;;;;;;13.20;99.90;;;;;;5084568;28;19921;-68
2022/05/26 00:16:36;;;;;;;;;;;13.40;99.90;;;;;;5080856;28;19927;-74
2022/05/26 00:19:02;;;;;;;;;;;13.20;99.90;;;;;;5081669;28;19922;-71
2022/05/26 00:21:28;;;;;;;;;;;13.30;99.90;;;;;;5082463;28;19927;-71
2022/05/26 00:23:55;;;;;;;;;;;13.30;99.90;;;;;;5073657;28;19920;-71
2022/05/26 00:26:21;;;;;;;;;;;13.30;99.90;;;;;;5084269;28;19928;-73
2022/05/26 00:28:46;;;;;;;;;;;13.50;99.90;;;;;;5076908;28;19943;-70
2022/05/26 00:31:12;;;;;;;;;;;13.30;99.90;;;;;;5075000;28;19947;-72
2022/05/26 00:33:37;;;;;;;;;;;13.50;99.90;;;;;;5081599;28;20286;-73
2022/05/26 00:36:04;;;;;;;;;;;13.60;99.90;;;;;;5079102;28;19947;-71
2022/05/26 00:38:29;;;;;;;;;;;13.40;99.90;;;;;;5113730;27;19920;-71
2022/05/26 00:41:00;;;;;;;;;;;13.40;99.90;;;;;;5081063;28;19973;-71
2022/05/26 00:43:25;;;;;;;;;;;13.40;99.90;;;;;;5100757;28;19997;-72
2022/05/26 00:46:01;;;;;;;;;;;13.40;99.90;;;;;;5083599;28;19982;-68
2022/05/26 00:48:37;;;;;;;;;;;13.50;99.90;;;;;;5078880;28;19965;-68
2022/05/26 00:51:03;;;;;;;;;;;13.50;99.90;;;;;;5110644;27;19952;-72
2022/05/26 00:53:32;;;;;;;;;;;13.50;99.90;;;;;;5059026;28;19966;-72
2022/05/26 00:56:01;;;;;;;;;;;13.40;99.90;;;;;;5077661;28;20260;-72
2022/05/26 00:58:30;;;;;;;;;;;13.50;99.90;;;;;;5076065;28;19967;-71
2022/05/26 01:00:57;;;;;;;;;;;13.50;99.90;;;;;;5088996;28;20015;-68
2022/05/26 01:03:36;;;;;;;;;;;13.40;99.90;;;;;;5065778;28;19924;-70
2022/05/26 01:06:02;;;;;;;;;;;13.60;99.90;;;;;;5081885;28;19973;-68
2022/05/26 01:08:40;;;;;;;;;;;13.40;99.90;;;;;;5081177;28;19920;-71
2022/05/26 01:11:07;;;;;;;;;;;13.60;99.90;;;;;;5082368;28;19920;-70
2022/05/26 01:13:35;;;;;;;;;;;13.40;99.90;;;;;;5110604;27;19986;-76
2022/05/26 01:16:30;;;;;;;;;;;13.40;99.90;;;;;;5086685;28;20330;-71
2022/05/26 01:19:03;;;;;;;;;;;13.50;99.90;;;;;;5017132;28;19961;-73
2022/05/26 01:21:33;;;;;;;;;;;13.40;99.90;;;;;;5112465;27;19927;-70
2022/05/26 01:24:18;;;;;;;;;;;13.40;99.90;;;;;;5112323;27;19920;-71
2022/05/26 01:26:47;;;;;;;;;;;13.40;99.90;;;;;;5093917;28;19920;-69
2022/05/26 01:29:26;;;;;;;;;;;13.60;99.90;;;;;;5078832;28;20439;-71
2022/05/26 01:31:57;;;;;;;;;;;13.50;99.90;;;;;;5076399;28;19966;-70
2022/05/26 01:34:33;;;;;;;;;;;13.50;99.90;;;;;;5108780;27;19979;-74
2022/05/26 01:37:05;;;;;;;;;;;13.60;99.90;;;;;;5077547;28;19920;-76
2022/05/26 01:39:51;;;;;;;;;;;13.50;99.90;;;;;;5085735;28;19926;-71
2022/05/26 01:42:19;;;;;;;;;;;13.50;99.90;;;;;;5104984;27;19928;-69
2022/05/26 01:44:52;;;;;;;;;;;13.50;99.90;;;;;;5109731;28;19928;-70
2022/05/26 01:47:33;;;;;;;;;;;13.50;99.90;;;;;;5086272;28;19920;-68
2022/05/26 01:50:06;;;;;;;;;;;13.60;99.90;;;;;;5080443;28;19981;-72
2022/05/26 01:52:35;;;;;;;;;;;13.50;99.90;;;;;;5085704;28;19931;-71
2022/05/26 01:55:03;;;;;;;;;;;13.60;99.90;;;;;;5079970;28;19920;-74
2022/05/26 01:57:35;;;;;;;;;;;13.70;99.90;;;;;;5079175;28;19927;-74
2022/05/26 02:00:04;;;;;;;;;;;13.50;99.90;;;;;;5077857;28;20034;-71
2022/05/26 02:02:34;;;;;;;;;;;13.50;99.90;;;;;;5081957;28;19924;-70
2022/05/26 02:05:08;;;;;;;;;;;13.70;99.90;;;;;;5086851;28;19928;-74
2022/05/26 02:07:35;;;;;;;;;;;13.50;99.90;;;;;;5083713;28;19920;-78
2022/05/26 02:10:04;;;;;;;;;;;13.50;99.90;;;;;;5088481;28;19963;-72
2022/05/26 02:12:35;;;;;;;;;;;13.50;99.90;;;;;;5085334;28;19939;-73
2022/05/26 02:15:06;;;;;;;;;;;13.50;99.90;;;;;;5068543;28;19932;-72
2022/05/26 02:17:33;;;;;;;;;;;13.50;99.90;;;;;;5087045;28;19920;-71
2022/05/26 02:20:02;;;;;;;;;;;13.50;99.90;;;;;;5071374;28;19920;-73
2022/05/26 02:22:32;;;;;;;;;;;13.50;99.90;;;;;;5093965;28;19920;-74
2022/05/26 02:25:14;;;;;;;;;;;13.60;99.90;;;;;;5086370;28;19931;-71
2022/05/26 02:27:40;;;;;;;;;;;13.70;99.90;;;;;;5090589;28;19985;-70
2022/05/26 02:30:06;;;;;;;;;;;13.60;99.90;;;;;;5083332;28;19963;-70
2022/05/26 02:32:35;;;;;;;;;;;13.80;99.90;;;;;;5112347;27;19962;-72
2022/05/26 02:35:02;;;;;;;;;;;13.60;99.90;;;;;;5084485;28;19927;-73
2022/05/26 02:37:30;;;;;;;;;;;13.80;99.90;;;;;;5095321;28;19972;-70
2022/05/26 02:39:55;;;;;;;;;;;13.80;99.90;;;;;;5087466;28;19928;-73
2022/05/26 02:42:21;;;;;;;;;;;13.70;99.90;;;;;;5081294;28;19928;-77
2022/05/26 02:44:47;;;;;;;;;;;13.80;99.90;;;;;;5073788;28;19932;-70
2022/05/26 02:47:25;;;;;;;;;;;13.90;99.90;;;;;;5085689;28;20053;-76
2022/05/26 02:49:54;;;;;;;;;;;13.90;99.90;;;;;;5086341;28;19920;-72
2022/05/26 02:52:22;;;;;;;;;;;13.70;99.90;;;;;;5086908;28;20421;-76
2022/05/26 02:55:00;;;;;;;;;;;13.90;99.90;;;;;;5081225;28;19920;-68
2022/05/26 02:57:50;;;;;;;;;;;13.70;99.90;;;;;;5111545;27;19928;-74
2022/05/26 03:00:38;;;;;;;;;;;13.70;99.90;;;;;;5039835;28;20358;-74
2022/05/26 03:03:08;;;;;;;;;;;13.80;99.90;;;;;;5084676;28;20359;-71
2022/05/26 03:05:34;;;;;;;;;;;13.70;99.90;;;;;;5083666;28;19932;-70
2022/05/26 03:08:01;;;;;;;;;;;13.70;99.90;;;;;;5089038;28;20267;-71
2022/05/26 03:10:30;;;;;;;;;;;13.80;99.90;;;;;;5063240;28;19920;-67
2022/05/26 03:12:56;;;;;;;;;;;13.70;99.90;;;;;;5093950;28;19981;-69
2022/05/26 03:15:22;;;;;;;;;;;13.80;99.90;;;;;;5112159;27;19920;-71
2022/05/26 03:17:48;;;;;;;;;;;13.90;99.90;;;;;;5086824;28;19931;-67
2022/05/26 03:20:13;;;;;;;;;;;13.70;99.90;;;;;;5084723;28;20275;-69
2022/05/26 03:22:39;;;;;;;;;;;13.80;99.90;;;;;;5092530;28;19935;-69
2022/05/26 03:25:06;;;;;;;;;;;13.60;99.90;;;;;;5095321;28;19924;-69
2022/05/26 03:27:31;;;;;;;;;;;13.70;99.90;;;;;;5081083;28;19977;-72
2022/05/26 03:29:57;;;;;;;;;;;13.60;99.90;;;;;;5083334;28;20002;-71
2022/05/26 03:32:23;;;;;;;;;;;13.80;99.90;;;;;;5088981;28;19924;-71
2022/05/26 03:43:02;;;;;;;;;;;13.70;99.90;;;;;;5085308;28;20365;-70
2022/05/26 03:45:30;;;;;;;;;;;13.50;99.90;;;;;;5076430;28;19925;-71
2022/05/26 03:47:55;;;;;;;;;;;13.60;99.90;;;;;;5086072;28;19955;-76
2022/05/26 03:50:21;;;;;;;;;;;13.50;99.90;;;;;;5080314;28;19928;-70
2022/05/26 03:52:46;;;;;;;;;;;13.60;99.90;;;;;;5081666;28;19921;-72
2022/05/26 03:55:12;;;;;;;;;;;13.50;99.90;;;;;;5083873;28;19932;-69
2022/05/26 03:57:38;;;;;;;;;;;13.60;99.90;;;;;;5089131;28;19946;-72
2022/05/26 04:00:04;;;;;;;;;;;13.40;99.90;;;;;;5117039;27;19928;-68
2022/05/26 04:02:29;;;;;;;;;;;13.40;99.90;;;;;;5074972;28;19946;-74
2022/05/26 04:04:56;;;;;;;;;;;13.40;99.90;;;;;;5110930;27;19928;-73
2022/05/26 04:07:21;;;;;;;;;;;13.40;99.90;;;;;;5088869;28;19981;-71
2022/05/26 04:09:47;;;;;;;;;;;13.40;99.90;;;;;;5083246;28;19920;-76
2022/05/26 04:12:12;;;;;;;;;;;13.50;99.90;;;;;;5094257;28;20038;-71
2022/05/26 04:14:38;;;;;;;;;;;13.40;99.90;;;;;;5078383;28;19920;-75
2022/05/26 04:17:04;;;;;;;;;;;13.40;99.90;;;;;;5081295;28;19920;-73
2022/05/26 04:19:29;;;;;;;;;;;13.40;99.90;;;;;;5082699;28;19927;-70
2022/05/26 04:24:39;;;;;;;;;;;13.30;99.90;;;;;;5085615;28;20328;-74
2022/05/26 04:27:05;;;;;;;;;;;13.30;99.90;;;;;;5086113;28;20023;-73
2022/05/26 04:29:31;;;;;;;;;;;13.30;99.90;;;;;;5067309;28;19920;-73
2022/05/26 04:31:56;;;;;;;;;;;13.20;99.90;;;;;;5087685;28;19986;-71
2022/05/26 04:34:22;;;;;;;;;;;13.30;99.90;;;;;;5081187;28;20015;-73
2022/05/26 04:36:48;;;;;;;;;;;13.20;99.90;;;;;;5079826;28;19928;-70
2022/05/26 04:39:16;;;;;;;;;;;13.20;99.90;;;;;;5067374;28;19997;-74
2022/05/26 04:41:43;;;;;;;;;;;13.30;99.90;;;;;;5085381;28;19942;-75
2022/05/26 04:44:09;;;;;;;;;;;13.30;99.90;;;;;;5079733;28;19927;-71
2022/05/26 04:46:36;;;;;;;;;;;13.30;99.90;;;;;;5062816;28;20383;-72
2022/05/26 04:49:02;;;;;;;;;;;13.30;99.90;;;;;;5075422;28;20447;-72
2022/05/26 04:51:28;;;;;;;;;;;13.30;99.90;;;;;;5078051;28;19966;-73
2022/05/26 04:53:54;;;;;;;;;;;13.40;99.90;;;;;;5075409;28;20302;-72
2022/05/26 04:56:19;;;;;;;;;;;13.40;99.90;;;;;;5081062;28;19969;-69
2022/05/26 04:58:47;;;;;;;;;;;13.50;99.90;;;;;;5067464;28;19929;-72
2022/05/26 05:01:13;;;;;;;;;;;13.40;99.90;;;;;;5074989;28;20288;-71
2022/05/26 05:03:38;;;;;;;;;;;13.50;99.90;;;;;;5081868;28;19928;-69
2022/05/26 05:06:04;;;;;;;;;;;13.60;99.90;;;;;;5081116;28;20417;-70
2022/05/26 05:08:29;;;;;;;;;;;13.60;99.90;;;;;;5079626;28;19970;-74
2022/05/26 05:10:54;;;;;;;;;;;13.70;99.90;;;;;;5080400;28;19920;-72
2022/05/26 05:13:20;;;;;;;;;;;13.60;99.90;;;;;;5056730;28;19920;-71
2022/05/26 05:15:50;;;;;;;;;;;13.60;99.90;;;;;;5081361;28;20478;-70
2022/05/26 05:18:15;;;;;;;;;;;13.70;99.90;;;;;;5064531;28;19928;-71
2022/05/26 05:20:41;;;;;;;;;;;13.80;99.90;;;;;;5083532;28;20387;-72
2022/05/26 05:23:11;;;;;;;;;;;13.80;99.90;;;;;;5085563;28;19924;-69
2022/05/26 05:25:41;;;;;;;;;;;13.80;99.90;;;;;;5085184;28;19924;-70
2022/05/26 05:28:09;;;;;;;;;;;13.80;99.90;;;;;;5081616;28;19985;-71
2022/05/26 05:30:38;;;;;;;;;;;13.90;99.90;;;;;;5081678;28;19923;-71
2022/05/26 05:33:09;;;;;;;;;;;13.90;99.90;;;;;;5086132;28;19921;-70
2022/05/26 05:35:38;;;;;;;;;;;13.90;99.90;;;;;;5089959;28;19927;-71
2022/05/26 05:38:04;;;;;;;;;;;14.00;99.90;;;;;;5081331;28;20162;-74
2022/05/26 05:40:30;;;;;;;;;;;14.10;99.90;;;;;;5081459;28;19920;-68
2022/05/26 05:42:55;;;;;;;;;;;14.10;99.90;;;;;;5077215;28;20291;-70
2022/05/26 05:45:21;;;;;;;;;;;14.10;99.90;;;;;;5071839;28;19932;-71
2022/05/26 05:47:46;;;;;;;;;;;14.00;99.90;;;;;;5110861;28;20418;-71
2022/05/26 05:50:12;;;;;;;;;;;13.90;99.90;;;;;;5085324;28;19925;-70
2022/05/26 05:52:37;;;;;;;;;;;13.90;99.90;;;;;;5093512;28;20011;-69
2022/05/26 05:55:04;;;;;;;;;;;14.00;99.90;;;;;;5094207;28;19927;-70
2022/05/26 05:57:30;;;;;;;;;;;14.10;99.90;;;;;;5098538;28;19926;-71
2022/05/26 05:59:55;;;;;;;;;;;14.30;99.90;;;;;;5074282;28;19920;-70
2022/05/26 06:02:21;;;;;;;;;;;14.40;99.90;;;;;;5093396;28;19977;-72
2022/05/26 06:04:47;;;;;;;;;;;14.50;99.90;;;;;;5092392;28;19979;-69
2022/05/26 06:07:14;;;;;;;;;;;14.70;99.90;;;;;;5083105;28;19927;-69
2022/05/26 06:09:39;;;;;;;;;;;14.90;99.90;;;;;;5073945;28;19925;-71
2022/05/26 06:12:05;;;;;;;;;;;15.00;99.90;;;;;;5081758;28;20452;-70
2022/05/26 06:14:31;;;;;;;;;;;15.00;99.90;;;;;;5079059;28;20555;-68
2022/05/26 06:16:56;;;;;;;;;;;15.00;99.90;;;;;;5112573;28;19960;-70
2022/05/26 06:19:22;;;;;;;;;;;15.00;99.90;;;;;;5074555;28;20455;-68
2022/05/26 06:21:48;;;;;;;;;;;15.00;99.90;;;;;;5076028;28;20363;-71
2022/05/26 06:24:13;;;;;;;;;;;15.00;99.90;;;;;;5107252;28;19924;-70
2022/05/26 06:26:39;;;;;;;;;;;15.00;99.90;;;;;;5060144;28;19935;-71
2022/05/26 06:37:17;;;;;;;;;;;15.40;99.90;;;;;;5105819;28;20416;-73
2022/05/26 06:39:43;;;;;;;;;;;15.40;99.90;;;;;;5075653;28;19920;-70
2022/05/26 06:42:09;;;;;;;;;;;15.40;99.90;;;;;;5081480;28;19963;-70
2022/05/26 06:44:38;;;;;;;;;;;15.30;99.90;;;;;;5071023;28;19938;-69
2022/05/26 06:47:05;;;;;;;;;;;15.30;99.90;;;;;;5081062;28;19921;-71
2022/05/26 06:49:31;;;;;;;;;;;15.20;99.90;;;;;;5082907;28;19920;-70
2022/05/26 06:51:58;;;;;;;;;;;15.20;99.90;;;;;;5082947;28;20319;-71
2022/05/26 06:54:23;;;;;;;;;;;15.20;99.90;;;;;;5078534;28;19928;-70
2022/05/26 06:56:49;;;;;;;;;;;15.10;99.90;;;;;;5065018;28;19970;-70
2022/05/26 06:59:14;;;;;;;;;;;15.10;99.90;;;;;;5086561;28;19926;-71
2022/05/26 07:01:40;;;;;;;;;;;15.10;99.90;;;;;;5115774;27;19978;-70
2022/05/26 07:04:05;;;;;;;;;;;15.20;99.90;;;;;;5078160;28;19928;-70
2022/05/26 07:06:31;;;;;;;;;;;15.20;99.90;;;;;;5083070;28;19945;-72
2022/05/26 07:08:57;;;;;;;;;;;15.30;99.90;;;;;;5059750;28;19998;-70
2022/05/26 07:11:22;;;;;;;;;;;15.40;99.90;;;;;;5084232;28;19956;-69
2022/05/26 07:13:47;;;;;;;;;;;15.40;99.90;;;;;;5084515;28;20018;-73
2022/05/26 07:16:15;;;;;;;;;;;15.40;99.90;;;;;;5110809;27;19928;-69
2022/05/26 07:18:40;;;;;;;;;;;15.40;99.90;;;;;;5082174;28;19993;-68
2022/05/26 07:21:07;;;;;;;;;;;15.40;99.90;;;;;;5081413;28;19928;-70
2022/05/26 07:23:34;;;;;;;;;;;15.60;99.90;;;;;;5113075;27;19927;-69
2022/05/26 07:26:03;;;;;;;;;;;15.60;99.90;;;;;;5117903;27;19928;-71
2022/05/26 07:28:28;;;;;;;;;;;15.80;99.90;;;;;;5115325;27;19973;-69
2022/05/26 07:30:53;;;;;;;;;;;15.90;99.90;;;;;;5087153;28;19920;-69
2022/05/26 07:33:19;;;;;;;;;;;16.00;99.90;;;;;;5084374;28;19920;-69
2022/05/26 07:35:45;;;;;;;;;;;16.10;99.90;;;;;;5087439;28;19928;-70
2022/05/26 07:43:39;;;;;;;;;;;15.80;99.90;;;;;;5110503;27;19931;-70
2022/05/26 07:46:05;;;;;;;;;;;15.80;99.90;;;;;;5084889;28;20018;-70
2022/05/26 07:48:30;;;;;;;;;;;15.70;99.90;;;;;;5075826;28;19921;-70
2022/05/26 07:50:56;;;;;;;;;;;15.70;99.90;;;;;;5112894;27;19931;-69
2022/05/26 07:53:21;;;;;;;;;;;15.80;99.90;;;;;;5085509;28;19927;-68
2022/05/26 07:55:47;;;;;;;;;;;15.90;99.90;;;;;;5094805;28;19927;-71
2022/05/26 07:58:13;;;;;;;;;;;16.00;99.90;;;;;;5087005;28;19927;-69
2022/05/26 08:00:39;;;;;;;;;;;16.00;99.90;;;;;;5090784;28;19920;-68
2022/05/26 08:03:05;;;;;;;;;;;16.00;99.90;;;;;;5115072;27;19927;-71
2022/05/26 08:05:31;;;;;;;;;;;16.10;99.90;;;;;;5080550;28;20381;-70
2022/05/26 08:07:56;;;;;;;;;;;16.00;99.90;;;;;;5083222;28;19924;-67
2022/05/26 08:10:22;;;;;;;;;;;16.00;99.90;;;;;;5080183;28;20019;-73
2022/05/26 08:12:47;;;;;;;;;;;16.00;99.90;;;;;;5083726;28;20405;-70
2022/05/26 08:15:13;;;;;;;;;;;16.10;99.90;;;;;;5083361;28;19920;-71
2022/05/26 08:17:38;;;;;;;;;;;16.20;99.90;;;;;;5085296;28;19928;-72
2022/05/26 08:20:04;;;;;;;;;;;16.30;99.90;;;;;;5080425;28;19993;-69
2022/05/26 08:22:30;;;;;;;;;;;16.40;99.90;;;;;;5085619;28;20015;-70
2022/05/26 08:24:56;;;;;;;;;;;16.50;99.90;;;;;;5080845;28;19994;-68
2022/05/26 08:27:22;;;;;;;;;;;16.50;99.90;;;;;;5107869;27;20215;-68
2022/05/26 08:29:48;;;;;;;;;;;16.50;99.90;;;;;;5077570;28;19934;-68
2022/05/26 08:32:17;;;;;;;;;;;16.60;99.90;;;;;;5080057;28;19959;-71
2022/05/26 08:34:42;;;;;;;;;;;16.70;99.90;;;;;;5082858;28;19974;-71
2022/05/26 08:37:12;;;;;;;;;;;16.80;99.90;;;;;;5079735;28;19920;-76
2022/05/26 08:39:37;;;;;;;;;;;16.80;99.90;;;;;;5077588;28;19930;-71
2022/05/26 08:42:03;;;;;;;;;;;17.00;99.90;;;;;;5077416;28;19924;-71
2022/05/26 08:44:31;;;;;;;;;;;17.10;99.90;;;;;;5076140;28;19963;-75
2022/05/26 08:47:01;;;;;;;;;;;17.20;99.90;;;;;;5081539;28;19969;-71
2022/05/26 08:49:30;;;;;;;;;;;17.20;99.90;;;;;;5118898;27;20008;-71
2022/05/26 08:51:58;;;;;;;;;;;17.30;99.90;;;;;;5088789;28;19926;-69
2022/05/26 08:54:44;;;;;;;;;;;17.30;99.90;;;;;;5070419;28;19928;-71
2022/05/26 08:57:13;;;;;;;;;;;17.30;99.90;;;;;;5103243;28;19970;-71
2022/05/26 08:59:44;;;;;;;;;;;17.10;99.90;;;;;;5102915;28;19920;-70
2022/05/26 09:02:28;;;;;;;;;;;16.80;99.90;;;;;;5106868;27;19981;-70
2022/05/26 09:04:55;;;;;;;;;;;16.60;99.90;;;;;;5085102;28;19996;-71
2022/05/26 09:12:59;;;;;;;;;;;17.40;99.90;;;;;;5087596;28;19973;-71
2022/05/26 09:15:26;;;;;;;;;;;17.50;99.90;;;;;;5088242;28;19920;-69
2022/05/26 09:17:51;;;;;;;;;;;17.40;99.90;;;;;;5089231;28;19920;-74
2022/05/26 09:20:27;;;;;;;;;;;17.30;99.90;;;;;;5092148;28;19928;-70
2022/05/26 09:22:52;;;;;;;;;;;17.20;99.90;;;;;;5091416;28;19967;-72
2022/05/26 09:25:38;;;;;;;;;;;17.10;99.90;;;;;;5080612;28;20017;-71
2022/05/26 09:28:04;;;;;;;;;;;17.10;99.90;;;;;;5117759;27;19920;-73
2022/05/26 09:30:31;;;;;;;;;;;17.30;99.90;;;;;;5089045;28;19943;-72
2022/05/26 09:32:57;;;;;;;;;;;17.40;99.90;;;;;;5080182;28;19929;-72
2022/05/26 09:35:27;;;;;;;;;;;17.50;99.90;;;;;;5067800;28;19928;-71
2022/05/26 09:37:54;;;;;;;;;;;17.60;99.90;;;;;;5063286;28;20359;-70
2022/05/26 09:40:41;;;;;;;;;;;17.80;99.90;;;;;;5086824;28;19986;-71
2022/05/26 09:43:06;;;;;;;;;;;17.80;99.90;;;;;;5073293;28;19978;-69
2022/05/26 09:45:40;;;;;;;;;;;17.80;99.90;;;;;;5077067;28;19936;-73
2022/05/26 09:48:13;;;;;;;;;;;17.70;99.90;;;;;;5070010;28;19928;-69
2022/05/26 09:50:49;;;;;;;;;;;17.50;99.90;;;;;;5077423;28;19920;-74
2022/05/26 09:53:26;;;;;;;;;;;17.30;99.90;;;;;;5066055;28;19921;-71
2022/05/26 09:55:54;;;;;;;;;;;17.10;99.90;;;;;;5086417;28;20268;-72
2022/05/26 09:58:30;;;;;;;;;;;16.90;99.90;;;;;;5118932;28;19920;-73
2022/05/26 10:01:00;;;;;;;;;;;16.70;99.90;;;;;;5051871;28;19920;-68
2022/05/26 10:03:49;;;;;;;;;;;16.60;99.90;;;;;;5082596;28;19920;-73
2022/05/26 10:06:23;;;;;;;;;;;16.50;99.90;;;;;;5087738;28;20007;-70
2022/05/26 10:09:01;;;;;;;;;;;16.40;99.90;;;;;;5088485;28;19924;-73
2022/05/26 10:11:36;;;;;;;;;;;16.40;99.90;;;;;;5078478;28;19924;-74
2022/05/26 10:14:17;;;;;;;;;;;16.40;99.90;;;;;;5078876;28;19951;-69
2022/05/26 10:16:55;;;;;;;;;;;16.30;99.90;;;;;;5106921;28;19924;-73
2022/05/26 10:19:39;;;;;;;;;;;16.50;99.90;;;;;;5082548;28;19951;-72
2022/05/26 10:22:08;;;;;;;;;;;16.80;99.90;;;;;;5086808;28;19924;-73
2022/05/26 10:24:39;;;;;;;;;;;17.20;99.90;;;;;;5076836;28;19924;-71
2022/05/26 10:27:23;;;;;;;;;;;17.40;99.90;;;;;;5079625;28;20395;-72
2022/05/26 10:30:02;;;;;;;;;;;17.40;99.90;;;;;;5084336;28;19920;-70
2022/05/26 10:32:31;;;;;;;;;;;17.70;99.90;;;;;;5083644;28;19928;-71
2022/05/26 10:34:59;;;;;;;;;;;17.80;99.90;;;;;;5065789;28;20385;-72
2022/05/26 10:37:32;;;;;;;;;;;17.90;99.90;;;;;;5084473;28;19942;-72
2022/05/26 10:39:57;;;;;;;;;;;17.80;99.90;;;;;;5089281;28;19924;-71
2022/05/26 10:42:25;;;;;;;;;;;18.00;99.90;;;;;;5093133;28;19924;-73
2022/05/26 10:44:51;;;;;;;;;;;18.20;99.90;;;;;;5076828;28;19943;-73
2022/05/26 10:47:18;;;;;;;;;;;18.00;99.90;;;;;;5113659;27;20388;-70
2022/05/26 10:49:45;;;;;;;;;;;17.90;99.90;;;;;;5082875;28;19931;-71
2022/05/26 10:52:14;;;;;;;;;;;17.90;99.90;;;;;;5071577;28;19946;-70
2022/05/26 10:54:43;;;;;;;;;;;18.00;99.90;;;;;;5071861;28;19925;-74
2022/05/26 10:57:10;;;;;;;;;;;18.20;99.90;;;;;;5071126;28;19967;-71
2022/05/26 10:59:45;;;;;;;;;;;18.60;99.90;;;;;;5081920;28;19920;-71
2022/05/26 11:02:29;;;;;;;;;;;18.80;99.90;;;;;;5092410;28;19971;-70
2022/05/26 11:04:56;;;;;;;;;;;18.70;99.90;;;;;;5080268;28;19928;-71
2022/05/26 11:07:40;;;;;;;;;;;18.60;99.90;;;;;;5071843;28;20283;-71
2022/05/26 11:10:09;;;;;;;;;;;18.50;99.90;;;;;;5124637;27;19920;-71
2022/05/26 11:12:50;;;;;;;;;;;18.70;99.90;;;;;;5092145;28;19967;-73
2022/05/26 11:18:05;;;;;;;;;;;19.00;99.90;;;;;;5071419;28;19969;-74
2022/05/26 11:20:38;;;;;;;;;;;19.20;99.90;;;;;;5088655;28;19973;-74
2022/05/26 11:23:04;;;;;;;;;;;19.40;99.90;;;;;;5115596;27;20019;-76
2022/05/26 11:25:35;;;;;;;;;;;19.50;99.90;;;;;;5091506;28;20366;-72
2022/05/26 11:28:19;;;;;;;;;;;19.60;99.90;;;;;;5091878;28;19924;-72
2022/05/26 11:36:59;;;;;;;;;;;19.20;99.90;;;;;;5081400;28;19927;-74
2022/05/26 11:39:29;;;;;;;;;;;19.00;99.90;;;;;;5089368;28;21364;-70
2022/05/26 11:41:59;;;;;;;;;;;19.10;99.90;;;;;;5091421;28;20019;-71
2022/05/26 11:44:45;;;;;;;;;;;19.20;99.90;;;;;;5091993;28;19963;-73
2022/05/26 11:47:25;;;;;;;;;;;19.40;99.90;;;;;;5086615;28;19924;-73
2022/05/26 11:49:51;;;;;;;;;;;19.20;99.90;;;;;;5088286;28;20150;-72
2022/05/26 11:52:25;;;;;;;;;;;19.00;99.90;;;;;;5085031;28;20460;-71
2022/05/26 11:54:53;;;;;;;;;;;18.60;99.90;;;;;;5088904;28;20085;-69
2022/05/26 11:57:42;;;;;;;;;;;18.60;99.90;;;;;;5091508;28;19920;-71
2022/05/26 12:00:17;;;;;;;;;;;18.70;99.90;;;;;;5076697;28;19924;-72
2022/05/26 12:02:43;;;;;;;;;;;19.10;99.90;;;;;;5071031;28;19951;-72
2022/05/26 12:05:27;;;;;;;;;;;19.30;99.90;;;;;;5061133;28;19931;-70
2022/05/26 12:07:53;;;;;;;;;;;19.30;99.90;;;;;;5090409;28;19931;-73
2022/05/26 12:10:20;;;;;;;;;;;18.90;99.90;;;;;;5072121;28;19921;-71
2022/05/26 12:12:46;;;;;;;;;;;18.60;99.90;;;;;;5118701;27;19934;-73
2022/05/26 12:15:15;;;;;;;;;;;18.50;99.90;;;;;;5070201;28;19924;-69
2022/05/26 12:17:43;;;;;;;;;;;18.60;99.90;;;;;;5122511;27;19947;-73
2022/05/26 12:20:12;;;;;;;;;;;18.80;99.90;;;;;;5085565;28;19931;-72
2022/05/26 12:23:00;;;;;;;;;;;18.70;99.90;;;;;;5104040;28;20371;-71
2022/05/26 12:25:36;;;;;;;;;;;18.60;99.90;;;;;;5069659;28;19924;-71
2022/05/26 12:28:10;;;;;;;;;;;18.60;99.90;;;;;;5070337;28;20728;-69
2022/05/26 12:30:39;;;;;;;;;;;18.60;99.90;;;;;;5080531;28;19920;-70
2022/05/26 12:33:13;;;;;;;;;;;18.60;99.90;;;;;;5089946;28;20329;-73
2022/05/26 12:35:56;;;;;;;;;;;18.70;99.90;;;;;;5082702;28;19924;-71
2022/05/26 12:38:44;;;;;;;;;;;18.80;99.90;;;;;;5073995;28;19924;-71
2022/05/26 12:41:10;;;;;;;;;;;18.90;99.90;;;;;;5070642;28;20330;-69
2022/05/26 12:43:45;;;;;;;;;;;18.90;99.90;;;;;;5087781;28;19955;-72
2022/05/26 12:46:28;;;;;;;;;;;18.80;99.90;;;;;;5099148;28;19931;-72
2022/05/26 12:49:01;;;;;;;;;;;18.80;99.90;;;;;;5092538;28;19924;-69
2022/05/26 12:51:32;;;;;;;;;;;19.00;99.90;;;;;;5112537;27;19946;-73
2022/05/26 12:54:00;;;;;;;;;;;18.90;99.90;;;;;;5083361;28;19977;-68
2022/05/26 12:56:33;;;;;;;;;;;18.90;99.90;;;;;;5084284;28;19942;-73
2022/05/26 12:58:59;;;;;;;;;;;18.90;99.90;;;;;;5079122;28;19970;-70
2022/05/26 13:01:25;;;;;;;;;;;18.90;99.90;;;;;;5069458;28;19928;-73
2022/05/26 13:04:12;;;;;;;;;;;18.90;99.90;;;;;;5088347;28;19927;-70
2022/05/26 13:06:39;;;;;;;;;;;18.90;99.90;;;;;;5086755;28;20022;-74
2022/05/26 13:09:04;;;;;;;;;;;19.10;99.90;;;;;;5068417;28;19920;-71
2022/05/26 13:11:34;;;;;;;;;;;19.10;99.90;;;;;;5095239;28;20023;-71
2022/05/26 13:14:08;;;;;;;;;;;19.00;99.90;;;;;;5096521;28;20396;-68
2022/05/26 13:16:41;;;;;;;;;;;18.90;99.90;;;;;;5083026;28;20244;-70
2022/05/26 13:19:20;;;;;;;;;;;18.80;99.90;;;;;;5084991;28;19966;-71
2022/05/26 13:21:47;;;;;;;;;;;18.70;99.90;;;;;;5075032;28;20342;-71
2022/05/26 13:24:14;;;;;;;;;;;18.60;99.90;;;;;;5090042;28;20003;-69
2022/05/26 13:26:41;;;;;;;;;;;18.50;99.90;;;;;;5077303;28;19935;-69
2022/05/26 13:29:07;;;;;;;;;;;18.60;99.90;;;;;;5123011;27;20398;-72
2022/05/26 13:34:17;;;;;;;;;;;18.50;99.90;;;;;;5102657;28;19946;-69
2022/05/26 13:36:42;;;;;;;;;;;18.40;99.90;;;;;;5089632;28;19924;-70
2022/05/26 13:39:09;;;;;;;;;;;18.40;99.90;;;;;;5088002;28;19920;-73
2022/05/26 13:41:36;;;;;;;;;;;18.40;99.90;;;;;;5067562;28;19955;-68
2022/05/26 13:44:06;;;;;;;;;;;18.40;99.90;;;;;;5079773;28;20286;-70
2022/05/26 13:46:32;;;;;;;;;;;18.40;99.90;;;;;;5089284;28;20030;-71
2022/05/26 13:48:59;;;;;;;;;;;18.50;99.90;;;;;;5082255;28;20000;-73
2022/05/26 13:51:37;;;;;;;;;;;18.40;99.90;;;;;;5069413;28;20006;-70
2022/05/26 13:54:21;;;;;;;;;;;18.30;99.90;;;;;;5075627;28;20378;-71
2022/05/26 13:56:47;;;;;;;;;;;18.20;99.90;;;;;;5081654;28;19920;-70
2022/05/26 13:59:14;;;;;;;;;;;18.10;99.90;;;;;;5088658;28;19981;-70
2022/05/26 14:01:53;;;;;;;;;;;18.10;99.90;;;;;;5095715;28;19920;-71
2022/05/26 14:04:39;;;;;;;;;;;18.00;99.90;;;;;;5088208;28;19927;-70
2022/05/26 14:07:27;;;;;;;;;;;18.10;99.90;;;;;;5104039;28;19931;-66
2022/05/26 14:10:04;;;;;;;;;;;18.10;99.90;;;;;;5106863;28;19932;-69
2022/05/26 14:12:30;;;;;;;;;;;18.00;99.90;;;;;;5085990;28;19920;-68
2022/05/26 14:14:56;;;;;;;;;;;17.90;99.90;;;;;;5086336;28;20401;-68
2022/05/26 14:17:31;;;;;;;;;;;17.90;99.90;;;;;;5102953;28;19964;-69
2022/05/26 14:20:26;;;;;;;;;;;17.90;99.90;;;;;;5068197;28;20307;-71
2022/05/26 14:22:52;;;;;;;;;;;17.80;99.90;;;;;;5065895;28;19928;-71
2022/05/26 14:25:18;;;;;;;;;;;17.70;99.90;;;;;;5104313;28;19932;-67
2022/05/26 14:27:52;;;;;;;;;;;17.60;99.90;;;;;;5076882;28;19994;-68
2022/05/26 14:30:27;;;;;;;;;;;17.50;99.90;;;;;;5109105;28;20299;-71
2022/05/26 14:32:53;;;;;;;;;;;17.50;99.90;;;;;;5094600;28;20168;-69
2022/05/26 14:35:18;;;;;;;;;;;17.50;99.90;;;;;;5085666;28;20284;-68
2022/05/26 14:37:44;;;;;;;;;;;17.50;99.90;;;;;;5084961;28;19924;-67
2022/05/26 14:40:10;;;;;;;;;;;17.50;99.90;;;;;;5080565;28;19927;-71
2022/05/26 14:42:43;;;;;;;;;;;17.40;99.90;;;;;;5085565;28;19919;-69
2022/05/26 14:45:14;;;;;;;;;;;17.40;99.90;;;;;;5082073;28;20299;-69
2022/05/26 14:47:40;;;;;;;;;;;17.40;99.90;;;;;;5089495;28;19920;-69
2022/05/26 14:50:07;;;;;;;;;;;17.30;99.90;;;;;;5072099;28;20407;-67
2022/05/26 14:52:33;;;;;;;;;;;17.30;99.90;;;;;;5084872;28;19978;-67
2022/05/26 14:57:43;;;;;;;;;;;17.20;99.90;;;;;;5075786;28;19970;-67
2022/05/26 15:00:11;;;;;;;;;;;17.20;99.90;;;;;;5075564;28;19933;-70
2022/05/26 15:02:36;;;;;;;;;;;17.20;99.90;;;;;;5077819;28;19921;-68
2022/05/26 15:05:02;;;;;;;;;;;17.10;99.90;;;;;;5088163;28;19928;-69
2022/05/26 15:07:28;;;;;;;;;;;17.00;99.90;;;;;;5090359;28;19920;-68
2022/05/26 15:09:54;;;;;;;;;;;17.00;99.90;;;;;;5088321;28;19926;-67
2022/05/26 15:12:19;;;;;;;;;;;17.10;99.90;;;;;;5074662;28;19920;-70
2022/05/26 15:14:45;;;;;;;;;;;17.10;99.90;;;;;;5075108;28;19938;-66